Time;durP1;ratioP1;P1;durP2;ratioP2;P2;SDS_P1;SDS_P2;PMS_P1;PMS_P2;Temp;Humidity;BMP_temperature;BMP_pressure;BME280_temperature;BME280_humidity;BME280_pressure;Samples;Min_cycle;Max_cycle;Signal;HPM_P1;HPM_P2
2022/04/01 00:01:54;;;;;;;;;;;19.40;54.00;;;;;;5042677;28;43024;-76
2022/04/01 00:04:20;;;;;;;;;;;19.50;53.50;;;;;;5042891;28;43090;-76
2022/04/01 00:06:45;;;;;;;;;;;19.60;53.60;;;;;;5042907;28;44360;-76
2022/04/01 00:09:11;;;;;;;;;;;19.60;53.90;;;;;;5042440;28;42917;-77
2022/04/01 00:11:36;;;;;;;;;;;19.30;54.30;;;;;;5042298;28;43587;-76
2022/04/01 00:14:02;;;;;;;;;;;19.50;54.30;;;;;;5042694;28;42899;-78
2022/04/01 00:16:27;;;;;;;;;;;19.30;54.60;;;;;;5040850;28;44659;-78
2022/04/01 00:18:53;;;;;;;;;;;19.40;54.00;;;;;;5042187;28;42860;-76
2022/04/01 00:21:19;;;;;;;;;;;19.40;54.10;;;;;;5042345;28;43380;-77
2022/04/01 00:23:44;;;;;;;;;;;19.50;54.20;;;;;;5042896;28;42843;-77
2022/04/01 00:26:10;;;;;;;;;;;19.30;54.30;;;;;;5042705;28;43002;-77
2022/04/01 00:28:36;;;;;;;;;;;19.50;54.20;;;;;;5041876;28;43536;-77
2022/04/01 00:31:02;;;;;;;;;;;19.40;54.10;;;;;;5041853;28;43058;-77
2022/04/01 00:33:27;;;;;;;;;;;19.40;54.70;;;;;;5043911;28;43021;-79
2022/04/01 00:35:53;;;;;;;;;;;19.50;54.80;;;;;;5046764;28;43693;-77
2022/04/01 00:38:19;;;;;;;;;;;19.40;54.30;;;;;;5046338;28;42851;-76
2022/04/01 00:40:45;;;;;;;;;;;19.50;54.40;;;;;;5046378;28;43728;-77
2022/04/01 00:43:10;;;;;;;;;;;19.50;54.70;;;;;;5046612;28;43156;-77
2022/04/01 00:45:36;;;;;;;;;;;19.50;54.70;;;;;;5046933;28;43176;-77
2022/04/01 00:48:02;;;;;;;;;;;19.80;55.10;;;;;;5045355;28;43201;-77
2022/04/01 00:50:32;;;;;;;;;;;19.50;55.30;;;;;;5046562;28;43369;-77
2022/04/01 00:52:58;;;;;;;;;;;19.50;55.00;;;;;;5046641;28;42980;-76
2022/04/01 00:55:23;;;;;;;;;;;19.50;54.90;;;;;;5046157;28;43384;-76
2022/04/01 00:57:49;;;;;;;;;;;19.40;55.20;;;;;;5045962;28;43252;-77
2022/04/01 01:00:15;;;;;;;;;;;19.50;55.10;;;;;;5046334;28;42999;-76
2022/04/01 01:02:40;;;;;;;;;;;19.50;55.30;;;;;;5046005;28;42886;-76
2022/04/01 01:05:06;;;;;;;;;;;19.40;54.20;;;;;;5046581;28;43366;-78
2022/04/01 01:07:32;;;;;;;;;;;19.70;54.90;;;;;;5046211;28;42892;-77
2022/04/01 01:09:59;;;;;;;;;;;19.50;55.00;;;;;;5046138;28;43510;-76
2022/04/01 01:12:25;;;;;;;;;;;19.50;55.10;;;;;;5045921;28;42924;-77
2022/04/01 01:14:51;;;;;;;;;;;19.50;54.70;;;;;;5045804;28;43070;-77
2022/04/01 01:17:16;;;;;;;;;;;19.40;54.50;;;;;;5045780;28;42984;-78
2022/04/01 01:19:45;;;;;;;;;;;19.60;54.80;;;;;;5045283;28;43701;-77
2022/04/01 01:22:12;;;;;;;;;;;19.70;54.90;;;;;;5045747;28;42826;-77
2022/04/01 01:24:41;;;;;;;;;;;19.50;55.80;;;;;;5045894;28;42955;-78
2022/04/01 01:27:08;;;;;;;;;;;19.60;54.80;;;;;;5045464;28;43710;-78
2022/04/01 01:29:34;;;;;;;;;;;19.60;55.40;;;;;;5045782;28;42911;-75
2022/04/01 01:32:00;;;;;;;;;;;21.80;56.60;;;;;;5045812;28;43202;-76
2022/04/01 01:34:27;;;;;;;;;;;19.50;54.70;;;;;;5045271;28;43647;-77
2022/04/01 01:36:53;;;;;;;;;;;19.40;55.20;;;;;;5044835;28;42941;-77
2022/04/01 01:39:19;;;;;;;;;;;19.60;54.80;;;;;;5045385;28;43652;-77
2022/04/01 01:41:45;;;;;;;;;;;19.50;54.80;;;;;;5045553;28;43005;-78
2022/04/01 01:44:11;;;;;;;;;;;19.50;54.70;;;;;;5036250;28;42902;-77
2022/04/01 01:46:37;;;;;;;;;;;19.30;55.20;;;;;;5044416;28;43077;-79
2022/04/01 01:49:03;;;;;;;;;;;19.40;55.30;;;;;;5044266;28;44078;-77
2022/04/01 01:56:59;;;;;;;;;;;19.60;54.90;;;;;;5045072;28;42996;-77
2022/04/01 01:59:25;;;;;;;;;;;19.50;55.50;;;;;;5044653;28;43009;-77
2022/04/01 02:01:50;;;;;;;;;;;20.20;55.90;;;;;;5045026;28;43242;-77
2022/04/01 02:04:16;;;;;;;;;;;19.30;54.80;;;;;;5045364;28;43060;-77
2022/04/01 02:06:41;;;;;;;;;;;19.50;55.10;;;;;;5045505;28;43012;-79
2022/04/01 02:09:07;;;;;;;;;;;19.50;55.20;;;;;;5044997;28;43018;-77
2022/04/01 02:11:32;;;;;;;;;;;19.50;55.00;;;;;;5044655;28;43159;-78
2022/04/01 02:13:58;;;;;;;;;;;19.50;55.40;;;;;;5044852;28;42922;-77
2022/04/01 02:16:24;;;;;;;;;;;19.50;55.70;;;;;;5045130;28;43066;-77
2022/04/01 02:18:49;;;;;;;;;;;19.50;55.10;;;;;;5044141;28;43535;-77
2022/04/01 02:21:15;;;;;;;;;;;19.50;55.20;;;;;;5045676;28;42917;-76
2022/04/01 02:23:46;;;;;;;;;;;19.40;55.90;;;;;;5044936;28;43082;-77
2022/04/01 02:26:12;;;;;;;;;;;19.40;55.60;;;;;;5024082;28;43024;-77
2022/04/01 02:28:38;;;;;;;;;;;19.50;55.90;;;;;;5023170;28;44928;-76
2022/04/01 02:31:08;;;;;;;;;;;19.60;55.80;;;;;;5023991;28;42967;-77
2022/04/01 02:33:35;;;;;;;;;;;19.40;56.60;;;;;;5023599;28;43567;-76
2022/04/01 02:36:02;;;;;;;;;;;19.50;55.90;;;;;;5023213;28;43217;-76
2022/04/01 02:38:28;;;;;;;;;;;19.50;56.40;;;;;;5024247;28;43522;-76
2022/04/01 02:40:54;;;;;;;;;;;18.80;56.40;;;;;;5024322;28;43271;-76
2022/04/01 02:43:20;;;;;;;;;;;19.60;56.20;;;;;;5023601;28;43618;-76
2022/04/01 02:45:48;;;;;;;;;;;19.50;55.70;;;;;;5024103;28;42769;-77
2022/04/01 02:48:14;;;;;;;;;;;19.60;56.20;;;;;;5023222;28;43408;-76
2022/04/01 02:50:40;;;;;;;;;;;19.50;58.40;;;;;;5023128;28;43194;-77
2022/04/01 02:53:06;;;;;;;;;;;19.50;55.40;;;;;;5035849;28;43497;-77
2022/04/01 02:55:32;;;;;;;;;;;19.60;55.90;;;;;;5043384;28;43008;-73
2022/04/01 02:57:59;;;;;;;;;;;19.50;54.70;;;;;;5044025;28;43674;-74
2022/04/01 03:00:24;;;;;;;;;;;19.50;54.60;;;;;;5043256;28;43127;-73
2022/04/01 03:02:50;;;;;;;;;;;19.50;54.20;;;;;;5043523;28;43025;-74
2022/04/01 03:05:17;;;;;;;;;;;19.60;54.70;;;;;;5043848;28;43011;-74
2022/04/01 03:07:44;;;;;;;;;;;19.60;54.80;;;;;;5042297;28;43526;-75
2022/04/01 03:10:10;;;;;;;;;;;19.60;54.60;;;;;;5044093;28;43245;-73
2022/04/01 03:12:36;;;;;;;;;;;19.60;54.60;;;;;;5043191;28;43077;-73
2022/04/01 03:15:02;;;;;;;;;;;19.60;54.50;;;;;;5043636;28;43031;-75
2022/04/01 03:17:28;;;;;;;;;;;19.60;54.50;;;;;;5043719;28;43378;-74
2022/04/01 03:19:54;;;;;;;;;;;19.70;54.10;;;;;;5043112;28;42967;-74
2022/04/01 03:22:20;;;;;;;;;;;19.60;54.50;;;;;;5043157;28;44385;-74
2022/04/01 03:24:46;;;;;;;;;;;19.60;54.40;;;;;;5043354;28;42938;-75
2022/04/01 03:27:12;;;;;;;;;;;19.60;54.40;;;;;;5043681;28;43217;-74
2022/04/01 03:29:38;;;;;;;;;;;19.60;54.40;;;;;;5043336;28;43202;-73
2022/04/01 03:32:04;;;;;;;;;;;19.60;54.40;;;;;;5043982;28;43542;-74
2022/04/01 03:34:30;;;;;;;;;;;19.60;54.30;;;;;;5042064;28;42891;-73
2022/04/01 03:36:56;;;;;;;;;;;19.60;54.20;;;;;;5043431;28;43454;-74
2022/04/01 03:39:22;;;;;;;;;;;19.60;54.20;;;;;;5042293;28;43274;-74
2022/04/01 03:41:49;;;;;;;;;;;19.60;54.20;;;;;;5043175;28;43517;-73
2022/04/01 03:44:15;;;;;;;;;;;19.60;54.10;;;;;;5037961;28;43007;-74
2022/04/01 03:46:49;;;;;;;;;;;19.60;54.20;;;;;;5030867;28;42952;-74
2022/04/01 03:49:21;;;;;;;;;;;19.60;54.10;;;;;;5042691;28;43119;-75
2022/04/01 03:51:48;;;;;;;;;;;19.60;54.10;;;;;;5024148;28;42935;-74
2022/04/01 03:54:15;;;;;;;;;;;19.60;54.10;;;;;;5037909;28;42944;-74
2022/04/01 03:56:43;;;;;;;;;;;19.60;54.10;;;;;;5042946;28;43081;-73
2022/04/01 03:59:09;;;;;;;;;;;19.60;54.10;;;;;;5043281;28;42952;-74
2022/04/01 04:01:35;;;;;;;;;;;19.60;54.00;;;;;;5027927;28;44577;-74
2022/04/01 04:04:01;;;;;;;;;;;19.60;54.00;;;;;;5020545;28;42974;-74
2022/04/01 04:06:27;;;;;;;;;;;19.60;54.00;;;;;;5021651;28;43834;-73
2022/04/01 04:08:57;;;;;;;;;;;19.60;53.90;;;;;;5026429;28;42966;-74
2022/04/01 04:11:26;;;;;;;;;;;19.60;53.80;;;;;;5026604;28;43493;-73
2022/04/01 04:13:53;;;;;;;;;;;19.60;53.60;;;;;;5033326;28;43326;-72
2022/04/01 04:16:25;;;;;;;;;;;19.60;53.60;;;;;;5024087;28;43381;-74
2022/04/01 04:18:56;;;;;;;;;;;19.60;53.50;;;;;;5024322;28;44092;-73
2022/04/01 04:21:29;;;;;;;;;;;19.60;53.50;;;;;;5029863;28;43719;-75
2022/04/01 04:23:56;;;;;;;;;;;19.60;53.40;;;;;;5024241;28;43026;-72
2022/04/01 04:26:37;;;;;;;;;;;19.60;53.40;;;;;;5025312;28;43818;-74
2022/04/01 04:29:08;;;;;;;;;;;19.60;53.30;;;;;;5025251;28;42974;-73
2022/04/01 04:31:35;;;;;;;;;;;19.60;53.30;;;;;;5033158;28;43497;-74
2022/04/01 04:34:02;;;;;;;;;;;19.60;53.30;;;;;;5045127;28;43503;-72
2022/04/01 04:36:34;;;;;;;;;;;19.80;53.30;;;;;;5040281;28;42978;-73
2022/04/01 04:39:02;;;;;;;;;;;19.60;53.10;;;;;;5044882;28;42994;-74
2022/04/01 04:41:27;;;;;;;;;;;19.60;53.20;;;;;;5044721;28;43740;-74
2022/04/01 04:43:54;;;;;;;;;;;19.60;53.80;;;;;;5045550;28;43189;-73
2022/04/01 04:46:19;;;;;;;;;;;19.60;53.50;;;;;;5037107;28;43004;-73
2022/04/01 04:48:46;;;;;;;;;;;19.60;53.50;;;;;;5030599;28;42833;-72
2022/04/01 04:51:12;;;;;;;;;;;19.60;53.60;;;;;;5043928;28;43635;-73
2022/04/01 04:53:39;;;;;;;;;;;19.50;53.20;;;;;;5045875;28;42972;-74
2022/04/01 04:56:05;;;;;;;;;;;19.60;53.60;;;;;;5032238;28;43769;-75
2022/04/01 04:58:40;;;;;;;;;;;19.30;53.20;;;;;;5039747;28;43322;-73
2022/04/01 05:01:20;;;;;;;;;;;19.60;53.80;;;;;;5040043;28;43212;-74
2022/04/01 05:04:09;;;;;;;;;;;19.60;53.80;;;;;;5026811;28;43169;-72
2022/04/01 05:06:39;;;;;;;;;;;19.60;53.30;;;;;;5024100;28;43052;-75
2022/04/01 05:09:08;;;;;;;;;;;19.50;53.30;;;;;;5025034;28;42801;-75
2022/04/01 05:11:43;;;;;;;;;;;19.60;53.80;;;;;;5038555;28;43506;-74
2022/04/01 05:14:19;;;;;;;;;;;19.60;53.70;;;;;;5042010;28;43287;-75
2022/04/01 05:16:53;;;;;;;;;;;19.60;53.70;;;;;;5028231;28;43469;-74
2022/04/01 05:19:23;;;;;;;;;;;19.60;53.70;;;;;;5024856;28;42890;-75
2022/04/01 05:22:05;;;;;;;;;;;19.50;52.00;;;;;;5025681;28;43274;-74
2022/04/01 05:24:44;;;;;;;;;;;19.60;52.60;;;;;;5025320;28;42979;-75
2022/04/01 05:27:30;;;;;;;;;;;19.60;52.90;;;;;;5024541;28;43486;-75
2022/04/01 05:29:59;;;;;;;;;;;19.50;52.90;;;;;;5023934;28;43756;-75
2022/04/01 05:32:28;;;;;;;;;;;19.60;53.50;;;;;;5024863;28;43146;-75
2022/04/01 05:34:55;;;;;;;;;;;19.60;53.50;;;;;;5025391;28;43076;-75
2022/04/01 05:37:24;;;;;;;;;;;19.60;50.70;;;;;;5024935;28;43523;-75
2022/04/01 05:39:49;;;;;;;;;;;19.50;52.80;;;;;;5025141;28;42885;-76
2022/04/01 05:42:15;;;;;;;;;;;19.60;53.30;;;;;;5025267;28;43068;-76
2022/04/01 05:44:41;;;;;;;;;;;19.60;52.00;;;;;;5023888;28;42988;-75
2022/04/01 05:47:07;;;;;;;;;;;19.60;53.30;;;;;;5025493;28;42947;-76
2022/04/01 05:49:35;;;;;;;;;;;19.60;53.30;;;;;;5025498;28;42906;-75
2022/04/01 05:52:01;;;;;;;;;;;19.60;53.30;;;;;;5027436;28;43737;-75
2022/04/01 05:54:28;;;;;;;;;;;19.60;53.30;;;;;;5045798;28;43129;-75
2022/04/01 05:56:54;;;;;;;;;;;19.60;53.20;;;;;;5044887;28;43806;-75
2022/04/01 05:59:20;;;;;;;;;;;19.60;53.20;;;;;;5045370;28;42914;-76
2022/04/01 06:02:04;;;;;;;;;;;19.60;53.00;;;;;;5044930;28;43890;-75
2022/04/01 06:04:35;;;;;;;;;;;19.60;52.10;;;;;;5044690;28;43083;-76
2022/04/01 06:07:20;;;;;;;;;;;19.50;50.10;;;;;;5030986;28;43828;-76
2022/04/01 06:10:09;;;;;;;;;;;19.50;50.10;;;;;;5043655;28;43040;-75
2022/04/01 06:12:45;;;;;;;;;;;19.40;49.80;;;;;;5043492;28;43372;-75
2022/04/01 06:15:11;;;;;;;;;;;19.40;50.00;;;;;;5043200;28;42938;-75
2022/04/01 06:17:42;;;;;;;;;;;19.40;50.20;;;;;;5042790;28;43315;-75
2022/04/01 06:20:08;;;;;;;;;;;19.40;50.00;;;;;;5043957;28;43101;-76
2022/04/01 06:22:38;;;;;;;;;;;19.40;50.30;;;;;;5044457;28;43601;-75
2022/04/01 06:25:10;;;;;;;;;;;19.30;50.00;;;;;;5044510;28;42980;-75
2022/04/01 06:27:49;;;;;;;;;;;19.30;49.90;;;;;;5044115;28;43160;-76
2022/04/01 06:30:17;;;;;;;;;;;19.20;49.20;;;;;;5042473;28;43013;-76
2022/04/01 06:32:56;;;;;;;;;;;19.30;49.90;;;;;;5042005;28;43200;-76
2022/04/01 06:35:38;;;;;;;;;;;19.40;50.10;;;;;;5043525;28;43060;-75
2022/04/01 06:38:05;;;;;;;;;;;19.40;49.50;;;;;;5042888;28;42995;-76
2022/04/01 06:40:30;;;;;;;;;;;19.30;49.90;;;;;;5043608;28;43065;-75
2022/04/01 06:42:57;;;;;;;;;;;19.30;51.60;;;;;;5043120;28;42997;-78
2022/04/01 06:45:22;;;;;;;;;;;19.30;51.30;;;;;;5040424;28;42982;-74
2022/04/01 06:47:48;;;;;;;;;;;19.20;51.50;;;;;;5042793;28;43615;-73
2022/04/01 06:50:16;;;;;;;;;;;19.20;51.30;;;;;;5035215;28;43466;-74
2022/04/01 06:52:42;;;;;;;;;;;19.20;51.60;;;;;;5043315;28;43129;-74
2022/04/01 06:55:08;;;;;;;;;;;19.20;51.40;;;;;;5043979;28;42962;-74
2022/04/01 06:57:34;;;;;;;;;;;19.20;51.40;;;;;;5043550;28;42910;-75
2022/04/01 06:59:59;;;;;;;;;;;19.20;51.60;;;;;;5041462;28;43097;-74
2022/04/01 07:02:25;;;;;;;;;;;19.30;51.50;;;;;;5041419;28;44089;-77
2022/04/01 07:04:51;;;;;;;;;;;19.20;51.70;;;;;;5041111;28;43012;-77
2022/04/01 07:07:17;;;;;;;;;;;19.20;51.80;;;;;;5042147;28;43974;-74
2022/04/01 07:09:42;;;;;;;;;;;19.30;51.70;;;;;;5042254;28;43079;-74
2022/04/01 07:12:08;;;;;;;;;;;19.20;51.50;;;;;;5042577;28;43508;-74
2022/04/01 07:14:33;;;;;;;;;;;19.30;51.50;;;;;;5041333;28;43132;-75
2022/04/01 07:16:59;;;;;;;;;;;19.30;51.50;;;;;;5043096;28;43593;-73
2022/04/01 07:19:25;;;;;;;;;;;19.30;51.30;;;;;;5043160;28;43120;-77
2022/04/01 07:21:52;;;;;;;;;;;19.30;51.50;;;;;;5041916;28;43234;-74
2022/04/01 07:24:20;;;;;;;;;;;19.30;51.30;;;;;;5039603;28;43164;-76
2022/04/01 07:26:45;;;;;;;;;;;19.30;51.30;;;;;;5041551;28;43687;-75
2022/04/01 07:29:11;;;;;;;;;;;19.40;51.20;;;;;;5042642;28;43195;-75
2022/04/01 07:34:25;;;;;;;;;;;19.40;51.20;;;;;;5041349;28;43214;-74
2022/04/01 07:36:50;;;;;;;;;;;19.40;51.10;;;;;;5042258;28;43367;-75
2022/04/01 07:39:16;;;;;;;;;;;19.40;50.90;;;;;;5041990;28;43010;-74
2022/04/01 07:41:42;;;;;;;;;;;19.40;51.00;;;;;;5041548;28;43086;-74
2022/04/01 07:44:07;;;;;;;;;;;19.40;51.00;;;;;;5040382;28;42971;-73
2022/04/01 07:46:33;;;;;;;;;;;19.40;51.10;;;;;;5043141;28;43455;-75
2022/04/01 07:48:59;;;;;;;;;;;19.40;51.10;;;;;;5042135;28;43185;-74
2022/04/01 07:51:25;;;;;;;;;;;19.40;51.10;;;;;;5040283;28;43150;-73
2022/04/01 07:53:52;;;;;;;;;;;19.40;51.00;;;;;;5040280;28;60892;-74
2022/04/01 07:56:18;;;;;;;;;;;19.40;51.10;;;;;;5040317;28;43379;-74
2022/04/01 07:58:43;;;;;;;;;;;19.40;51.00;;;;;;5041510;28;42960;-76
2022/04/01 08:01:09;;;;;;;;;;;19.40;51.10;;;;;;5039497;28;43067;-75
2022/04/01 08:03:34;;;;;;;;;;;19.40;50.80;;;;;;5039758;28;43106;-75
2022/04/01 08:06:00;;;;;;;;;;;19.40;51.00;;;;;;5040668;28;42946;-74
2022/04/01 08:08:25;;;;;;;;;;;19.40;50.90;;;;;;5041439;28;42906;-74
2022/04/01 08:10:51;;;;;;;;;;;19.40;51.00;;;;;;5041062;28;42971;-75
2022/04/01 08:13:17;;;;;;;;;;;19.40;50.80;;;;;;5041737;28;42866;-75
2022/04/01 08:15:43;;;;;;;;;;;19.40;50.90;;;;;;5041217;28;42905;-74
2022/04/01 08:18:09;;;;;;;;;;;19.40;50.90;;;;;;5040916;28;42953;-75
2022/04/01 08:20:34;;;;;;;;;;;19.40;50.90;;;;;;5040879;28;43321;-74
2022/04/01 08:23:00;;;;;;;;;;;19.40;50.90;;;;;;5041318;28;43181;-76
2022/04/01 08:25:25;;;;;;;;;;;19.40;50.90;;;;;;5040822;28;43012;-75
2022/04/01 08:27:51;;;;;;;;;;;19.40;50.80;;;;;;5042179;28;43082;-75
2022/04/01 08:30:16;;;;;;;;;;;19.40;51.10;;;;;;5037785;28;44130;-76
2022/04/01 08:32:42;;;;;;;;;;;19.40;51.00;;;;;;5041702;28;43145;-75
2022/04/01 08:35:08;;;;;;;;;;;19.40;51.00;;;;;;5042139;28;43657;-76
2022/04/01 08:37:33;;;;;;;;;;;19.40;51.00;;;;;;5042695;28;42921;-76
2022/04/01 08:39:59;;;;;;;;;;;19.40;51.10;;;;;;5041454;28;43645;-75
2022/04/01 08:42:26;;;;;;;;;;;19.40;51.10;;;;;;5042039;28;42953;-75
2022/04/01 08:44:52;;;;;;;;;;;19.40;51.20;;;;;;5041823;28;43777;-75
2022/04/01 08:47:18;;;;;;;;;;;19.40;51.20;;;;;;5043552;28;42981;-74
2022/04/01 08:49:43;;;;;;;;;;;19.40;51.20;;;;;;5043300;28;43112;-75
2022/04/01 08:52:09;;;;;;;;;;;19.50;51.20;;;;;;5040563;28;43268;-74
2022/04/01 08:54:35;;;;;;;;;;;19.40;51.10;;;;;;5041976;28;43119;-76
2022/04/01 08:57:00;;;;;;;;;;;19.50;51.20;;;;;;5034686;28;43040;-75
2022/04/01 08:59:27;;;;;;;;;;;19.50;51.10;;;;;;5043329;28;43032;-76
2022/04/01 09:02:01;;;;;;;;;;;19.50;51.10;;;;;;5045574;28;43270;-75
2022/04/01 09:04:26;;;;;;;;;;;19.50;51.10;;;;;;5047134;28;42973;-76
2022/04/01 09:06:52;;;;;;;;;;;19.50;51.50;;;;;;5043213;28;43039;-75
2022/04/01 09:09:25;;;;;;;;;;;19.50;51.30;;;;;;5045918;28;43566;-76
2022/04/01 09:12:04;;;;;;;;;;;19.50;51.10;;;;;;5044207;28;43051;-76
2022/04/01 09:14:29;;;;;;;;;;;19.50;51.10;;;;;;5048365;28;42952;-76
2022/04/01 09:16:56;;;;;;;;;;;19.50;51.20;;;;;;5045816;28;43039;-75
2022/04/01 09:19:27;;;;;;;;;;;19.50;51.10;;;;;;5044973;28;43597;-74
2022/04/01 09:21:53;;;;;;;;;;;19.50;51.00;;;;;;5043379;28;43041;-75
2022/04/01 09:24:18;;;;;;;;;;;19.50;51.10;;;;;;5042605;28;43532;-75
2022/04/01 09:26:44;;;;;;;;;;;19.50;51.20;;;;;;5043238;28;42902;-76
2022/04/01 09:29:11;;;;;;;;;;;19.50;51.10;;;;;;5043145;28;43005;-74
2022/04/01 09:31:38;;;;;;;;;;;19.20;51.00;;;;;;5040241;28;42982;-75
2022/04/01 09:34:09;;;;;;;;;;;19.50;51.20;;;;;;5046961;28;43035;-74
2022/04/01 09:36:37;;;;;;;;;;;19.50;51.10;;;;;;5047060;28;43007;-74
2022/04/01 09:39:06;;;;;;;;;;;19.50;51.10;;;;;;5045357;28;42993;-74
2022/04/01 09:41:31;;;;;;;;;;;19.50;51.10;;;;;;5046828;28;42972;-75
2022/04/01 09:44:00;;;;;;;;;;;19.50;51.00;;;;;;5048834;28;43068;-75
2022/04/01 09:46:26;;;;;;;;;;;19.50;51.00;;;;;;5049912;28;42903;-74
2022/04/01 09:48:56;;;;;;;;;;;19.50;51.00;;;;;;5046187;28;43021;-74
2022/04/01 09:51:21;;;;;;;;;;;19.60;51.10;;;;;;5039269;28;43194;-75
2022/04/01 09:53:52;;;;;;;;;;;19.50;51.10;;;;;;5043227;28;43775;-75
2022/04/01 09:56:18;;;;;;;;;;;19.50;51.00;;;;;;5043896;28;43079;-73
2022/04/01 09:58:43;;;;;;;;;;;19.50;51.10;;;;;;5044294;28;42924;-78
2022/04/01 10:01:09;;;;;;;;;;;19.60;51.20;;;;;;5046280;28;42851;-73
2022/04/01 10:03:35;;;;;;;;;;;19.60;51.70;;;;;;5044960;28;43811;-74
2022/04/01 10:06:01;;;;;;;;;;;19.60;51.70;;;;;;5039125;28;42965;-74
2022/04/01 10:08:28;;;;;;;;;;;19.60;51.30;;;;;;5044001;28;43568;-76
2022/04/01 10:10:54;;;;;;;;;;;19.60;51.40;;;;;;5037662;28;43160;-79
2022/04/01 10:13:25;;;;;;;;;;;19.50;51.60;;;;;;5034676;28;43141;-78
2022/04/01 10:15:51;;;;;;;;;;;19.50;51.90;;;;;;5026059;28;43049;-77
2022/04/01 10:18:18;;;;;;;;;;;19.60;51.80;;;;;;5045272;28;43391;-74
2022/04/01 10:20:44;;;;;;;;;;;19.50;51.90;;;;;;5042981;28;43166;-77
2022/04/01 10:23:11;;;;;;;;;;;18.80;51.50;;;;;;5043464;28;43691;-77
2022/04/01 10:25:39;;;;;;;;;;;19.50;51.90;;;;;;5043087;28;42824;-74
2022/04/01 10:28:05;;;;;;;;;;;19.50;51.80;;;;;;5054258;28;43671;-77
2022/04/01 10:30:32;;;;;;;;;;;19.50;51.60;;;;;;5044809;28;43192;-76
2022/04/01 10:32:59;;;;;;;;;;;19.40;51.40;;;;;;5042733;28;43573;-74
2022/04/01 10:35:26;;;;;;;;;;;19.40;51.60;;;;;;5044028;28;43649;-76
2022/04/01 10:37:55;;;;;;;;;;;19.40;51.30;;;;;;5045456;28;43016;-76
2022/04/01 10:40:22;;;;;;;;;;;19.40;51.30;;;;;;5042750;28;44113;-76
2022/04/01 10:42:48;;;;;;;;;;;19.40;51.20;;;;;;5042532;28;43450;-75
2022/04/01 10:45:16;;;;;;;;;;;19.40;51.20;;;;;;5043883;28;42915;-78
2022/04/01 10:51:36;;;;;;;;;;;19.40;51.20;;;;;;5042621;28;43187;-77
2022/04/01 10:53:42;;;;;;;;;;;19.40;51.00;;;;;;5040337;28;43028;-75
2022/04/01 10:56:23;;;;;;;;;;;19.40;51.00;;;;;;5040492;28;42979;-74
2022/04/01 10:59:04;;;;;;;;;;;19.40;51.10;;;;;;5039923;28;43106;-76
2022/04/01 11:01:30;;;;;;;;;;;;;;;;;;5039351;28;43068;-75
2022/04/01 11:03:56;;;;;;;;;;;;;;;;;;5042157;28;43750;-75
2022/04/01 11:06:22;;;;;;;;;;;;;;;;;;5042091;28;43372;-74
2022/04/01 11:08:48;;;;;;;;;;;;;;;;;;5041900;28;43315;-75
2022/04/01 11:11:14;;;;;;;;;;;;;;;;;;5034625;28;42998;-75
2022/04/01 11:13:40;;;;;;;;;;;;;;;;;;5042881;28;42923;-75
2022/04/01 11:16:05;;;;;;;;;;;;;;;;;;5040165;28;43563;-73
2022/04/01 11:18:31;;;;;;;;;;;;;;;;;;5032881;28;43119;-75
2022/04/01 11:20:57;;;;;;;;;;;;;;;;;;5036930;28;43478;-75
2022/04/01 11:23:23;;;;;;;;;;;;;;;;;;5040769;28;43040;-75
2022/04/01 11:25:51;;;;;;;;;;;;;;;;;;5040259;28;43012;-72
2022/04/01 11:28:17;;;;;;;;;;;;;;;;;;5037914;28;43193;-74
2022/04/01 11:30:43;;;;;;;;;;;;;;;;;;5041315;28;43013;-75
2022/04/01 11:33:08;;;;;;;;;;;;;;;;;;5041039;28;43418;-73
2022/04/01 11:35:39;;;;;;;;;;;;;;;;;;5039827;28;43404;-73
2022/04/01 11:38:05;;;;;;;;;;;;;;;;;;5042190;28;43060;-74
2022/04/01 11:40:31;;;;;;;;;;;;;;;;;;5043351;28;43085;-74
2022/04/01 11:42:57;;;;;;;;;;;;;;;;;;5040794;28;42958;-74
2022/04/01 11:45:23;;;;;;;;;;;19.40;51.00;;;;;;5042185;28;43012;-74
2022/04/01 11:47:49;;;;;;;;;;;19.40;53.00;;;;;;5036980;28;43435;-74
2022/04/01 11:50:16;;;;;;;;;;;19.40;53.10;;;;;;5040700;28;42927;-73
2022/04/01 11:52:42;;;;;;;;;;;19.40;52.80;;;;;;5043419;28;42920;-74
2022/04/01 11:55:16;;;;;;;;;;;19.40;52.80;;;;;;5041665;28;44004;-74
2022/04/01 11:57:41;;;;;;;;;;;19.40;52.70;;;;;;5041227;28;43670;-76
2022/04/01 12:00:11;;;;;;;;;;;19.40;52.70;;;;;;5044900;28;43251;-77
2022/04/01 12:02:37;;;;;;;;;;;19.40;53.00;;;;;;5035046;28;43713;-78
2022/04/01 12:05:03;;;;;;;;;;;19.40;52.40;;;;;;5046174;28;43166;-77
2022/04/01 12:10:27;;;;;;;;;;;19.40;51.80;;;;;;5000529;28;42969;-73
2022/04/01 12:13:00;;;;;;;;;;;19.40;51.90;;;;;;5046809;28;42896;-75
2022/04/01 12:15:40;;;;;;;;;;;19.30;52.50;;;;;;5045467;28;43918;-72
2022/04/01 12:18:07;;;;;;;;;;;19.30;52.00;;;;;;5043194;28;44555;-74
2022/04/01 12:20:38;;;;;;;;;;;19.30;52.30;;;;;;5046785;28;42969;-75
2022/04/01 12:23:04;;;;;;;;;;;19.30;52.10;;;;;;5044940;28;43209;-74
2022/04/01 12:25:31;;;;;;;;;;;19.30;52.40;;;;;;5044463;28;43093;-77
2022/04/01 12:27:58;;;;;;;;;;;19.30;52.90;;;;;;5034580;28;43468;-74
2022/04/01 12:30:33;;;;;;;;;;;19.30;52.50;;;;;;5051337;28;42979;-75
2022/04/01 12:32:59;;;;;;;;;;;19.20;52.50;;;;;;5052476;28;44036;-73
2022/04/01 12:35:25;;;;;;;;;;;19.20;52.90;;;;;;5056542;28;42950;-74
2022/04/01 12:38:02;;;;;;;;;;;19.20;52.70;;;;;;5048860;28;44155;-75
2022/04/01 12:40:28;;;;;;;;;;;19.20;52.80;;;;;;5055147;28;43206;-74
2022/04/01 12:42:53;;;;;;;;;;;19.20;52.30;;;;;;5054870;28;43915;-75
2022/04/01 12:45:19;;;;;;;;;;;19.20;52.10;;;;;;5058198;28;44007;-75
2022/04/01 12:47:44;;;;;;;;;;;19.20;52.10;;;;;;5063367;28;43170;-74
2022/04/01 12:50:29;;;;;;;;;;;19.20;52.60;;;;;;5065159;28;43170;-74
2022/04/01 12:53:07;;;;;;;;;;;19.10;51.40;;;;;;5064770;28;42839;-74
2022/04/01 12:55:32;;;;;;;;;;;19.10;52.10;;;;;;5067050;27;42979;-74
2022/04/01 12:57:58;;;;;;;;;;;19.10;51.70;;;;;;5066288;28;42835;-74
2022/04/01 13:00:24;;;;;;;;;;;19.10;51.80;;;;;;5066225;28;43031;-74
2022/04/01 13:02:50;;;;;;;;;;;19.10;51.80;;;;;;5067322;28;43028;-75
2022/04/01 13:05:16;;;;;;;;;;;19.10;51.70;;;;;;5066748;28;42981;-75
2022/04/01 13:07:42;;;;;;;;;;;19.00;51.20;;;;;;5066005;28;42946;-76
2022/04/01 13:10:07;;;;;;;;;;;19.00;51.30;;;;;;5066810;28;42952;-75
2022/04/01 13:12:37;;;;;;;;;;;19.10;51.60;;;;;;5066750;28;43508;-77
2022/04/01 13:15:04;;;;;;;;;;;19.10;51.70;;;;;;5064918;28;43036;-75
2022/04/01 13:17:41;;;;;;;;;;;19.10;51.40;;;;;;5065395;28;43855;-76
2022/04/01 13:20:08;;;;;;;;;;;19.10;51.60;;;;;;5065481;28;43002;-75
2022/04/01 13:22:34;;;;;;;;;;;19.00;50.90;;;;;;5064932;28;43819;-78
2022/04/01 13:24:59;;;;;;;;;;;19.00;51.20;;;;;;5064266;28;43323;-76
2022/04/01 13:27:25;;;;;;;;;;;18.90;50.90;;;;;;5065794;28;43567;-77
2022/04/01 13:29:52;;;;;;;;;;;19.00;51.00;;;;;;5064907;28;42890;-74
2022/04/01 13:32:18;;;;;;;;;;;18.90;50.90;;;;;;5063988;28;44076;-74
2022/04/01 13:34:44;;;;;;;;;;;18.90;50.50;;;;;;5065517;28;42942;-74
2022/04/01 13:37:10;;;;;;;;;;;18.90;50.60;;;;;;5065226;28;43330;-74
2022/04/01 13:39:35;;;;;;;;;;;18.90;51.00;;;;;;5065959;28;43073;-76
2022/04/01 13:42:02;;;;;;;;;;;18.90;50.90;;;;;;5066552;28;43582;-78
2022/04/01 13:44:28;;;;;;;;;;;18.90;51.20;;;;;;5065461;28;42942;-76
2022/04/01 13:46:54;;;;;;;;;;;18.90;50.90;;;;;;5051349;28;43665;-75
2022/04/01 13:49:20;;;;;;;;;;;18.80;51.10;;;;;;5045905;28;42832;-75
2022/04/01 13:51:45;;;;;;;;;;;18.80;51.20;;;;;;5045396;28;44014;-76
2022/04/01 13:54:11;;;;;;;;;;;18.90;51.00;;;;;;5045752;28;42962;-75
2022/04/01 13:56:37;;;;;;;;;;;18.80;51.10;;;;;;5049266;28;43018;-75
2022/04/01 13:59:03;;;;;;;;;;;18.70;51.10;;;;;;5052956;28;43334;-75
2022/04/01 14:01:29;;;;;;;;;;;18.80;51.20;;;;;;5055610;28;43417;-75
2022/04/01 14:03:54;;;;;;;;;;;18.70;51.30;;;;;;5055016;28;43061;-75
2022/04/01 14:06:23;;;;;;;;;;;18.70;51.50;;;;;;5054205;28;43045;-75
2022/04/01 14:08:49;;;;;;;;;;;18.70;51.60;;;;;;5045810;28;42824;-75
2022/04/01 14:11:14;;;;;;;;;;;18.70;51.70;;;;;;5044668;28;43624;-75
2022/04/01 14:13:40;;;;;;;;;;;18.70;51.80;;;;;;5044349;28;43269;-76
2022/04/01 14:16:05;;;;;;;;;;;18.80;51.90;;;;;;5043618;28;44353;-76
2022/04/01 14:18:31;;;;;;;;;;;18.70;51.80;;;;;;5043969;28;42918;-75
2022/04/01 14:20:59;;;;;;;;;;;18.80;51.90;;;;;;5044666;28;43071;-75
2022/04/01 14:23:28;;;;;;;;;;;18.80;51.70;;;;;;5045079;28;42995;-76
2022/04/01 14:25:56;;;;;;;;;;;18.60;51.60;;;;;;5044724;28;43594;-77
2022/04/01 14:28:22;;;;;;;;;;;18.80;52.00;;;;;;5043462;28;43024;-76
2022/04/01 14:30:47;;;;;;;;;;;18.80;51.50;;;;;;5044371;28;43741;-76
2022/04/01 14:33:13;;;;;;;;;;;18.80;51.70;;;;;;5044757;28;42958;-76
2022/04/01 14:35:39;;;;;;;;;;;18.80;51.60;;;;;;5044500;28;43275;-77
2022/04/01 14:38:05;;;;;;;;;;;18.80;51.70;;;;;;5044964;28;42807;-76
2022/04/01 14:40:34;;;;;;;;;;;18.70;51.60;;;;;;5043489;28;43978;-75